Tropical Cyclones
[Index]
Season 2020-2021 Tropical Cyclone 202103 Track Map
Season 2020-2021 Summaries (Operational Data): [AU] [SIO] [SPAC] [SH]
<<- Previous TC | 2020-2021 Season | Next TC ->>

click for intensity scale information  Lat/long Grid: Show Hide

 Date Labels: Show Hide

Operational Tropical Cyclone Data

Name: 202103
Number: 2103

04 Dec 2020 00:00 UTC to 12 Dec 2020 00:00 UTC

    date/time    lat    long     hPa   cat  kts
2020-12-04 00    9.6   104.8    1008         15          
2020-12-04 18    8.9   104.9    1007         15          
2020-12-05 00    8.9   106.3    1006         20          
2020-12-05 06    8.7   105.5    1005         20          
2020-12-05 12    8.7   105.8    1004         20          
2020-12-05 18    8.7   106.0    1004         20          
2020-12-06 00    8.8   106.3    1004         20          
2020-12-06 06    9.0   106.9    1003         20          
2020-12-06 12    9.4   107.4    1003         20          
2020-12-06 18    9.8   107.7    1004         20          
2020-12-07 00   10.2   107.8    1002         25          
2020-12-07 06   10.6   107.9    1001         25          
2020-12-07 12   10.9   107.9    1001         25          
2020-12-07 18   11.3   107.7    1000         25          
2020-12-08 00   11.3   107.8    1001         25          
2020-12-08 06   11.2   107.7    1000         25          
2020-12-08 12   11.1   108.1     998         25          
2020-12-08 18   11.0   108.5     992    1    40          
2020-12-09 00   11.1   109.0     994    1    40          
2020-12-09 06   11.6   109.9     995    1    35          
2020-12-09 12   12.4   110.6     998         30          
2020-12-09 18   13.3   110.9     998         30          
2020-12-10 00   14.0   111.3    1000         30          
2020-12-10 06   14.8   112.3    1001         30          
2020-12-10 12   16.2   113.6    1001         30          
2020-12-10 18   18.0   115.1    1000         30          
2020-12-11 00   19.6   117.3     999    1    35          
2020-12-11 06   21.1   119.0     999         30          
2020-12-11 12   22.6   120.8    1000         25          
2020-12-11 18   24.3   123.2     998         25          
2020-12-12 00   26.1   125.0    1000         25          
Winds were reported as (or converted to) 10-min average.

Tropical cyclone tracks developed by Michael Bath using operational warnings and advisories and Google Maps.


Document: tropical_cyclone_202103.htm
Updated: 12 February 2021
[Australian Severe Weather index] [Copyright Notice] [Email Contacts] [Search This Site] [Privacy Policy]


Main Index Home Page Stock Weather Photos Extreme Storms Discussion Storm News and Storm Chasing Reports Tropical Cyclones / Hurricanes / Typhoons Weather Data and Links Wild Fires / Bushfires Weather Observation Techniques Weather Picture Catalogue Tornado Pictures and Reports Stock Video Footage and DVDs for sale